| time (UTC) | temp C | wind direction | speed KPH | gust KPH | rain 1hr cm | rain 24hr cm | rain mn cm | humidity % | barometer mb |
| 20260906230024 | 25 | 171 | 8.0 | 19.3 | 0.00 | 0.00 | 0.00 | 23 | 1003.6 |
| 20260906224523 | 25 | 171 | 14.5 | 25.7 | 0.00 | 0.00 | 0.00 | 27 | 1003.4 |
| 20260906223033 | 25 | 171 | 25.7 | 35.4 | 0.00 | 0.00 | 0.00 | 23 | 1003.6 |
| 20260906221521 | 26 | 171 | 12.9 | 30.6 | 0.00 | 0.00 | 0.00 | 21 | 1003.8 |
| 20260906220020 | 25 | 171 | 22.5 | 37.0 | 0.00 | 0.00 | 0.00 | 19 | 1003.9 |
| 20260906214521 | 26 | 171 | 20.9 | 37.0 | 0.00 | 0.00 | 0.00 | 21 | 1003.9 |
| 20260906213020 | 26 | 171 | 27.4 | 35.4 | 0.00 | 0.00 | 0.00 | 19 | 1004.1 |
| 20260906211604 | 26 | 171 | 12.9 | 27.4 | 0.00 | 0.00 | 0.00 | 20 | 1004.2 |
| 20260906210058 | 26 | 171 | 8.0 | 35.4 | 0.00 | 0.00 | 0.00 | 24 | 1004.4 |
| 20260906204541 | 27 | 171 | 4.8 | 19.3 | 0.00 | 0.00 | 0.00 | 19 | 1004.7 |
| 20260906203037 | 26 | 171 | 9.7 | 19.3 | 0.00 | 0.00 | 0.00 | 22 | 1004.5 |
| 20260906201518 | 26 | 171 | 8.0 | 20.9 | 0.00 | 0.00 | 0.00 | 20 | 1004.9 |
| 20260906200025 | 25 | 171 | 12.9 | 35.4 | 0.00 | 0.00 | 0.00 | 22 | 1005.0 |
| 20260906194614 | 25 | 171 | 11.3 | 22.5 | 0.00 | 0.00 | 0.00 | 24 | 1005.2 |
| 20260906193107 | 25 | 171 | 17.7 | 27.4 | 0.00 | 0.00 | 0.00 | 27 | 1005.5 |
| 20260906191539 | 24 | 171 | 20.9 | 30.6 | 0.00 | 0.00 | 0.00 | 28 | 1005.6 |
| 20260906190031 | 24 | 171 | 22.5 | 30.6 | 0.00 | 0.00 | 0.00 | 26 | 1005.7 |
| 20260906184510 | 23 | 171 | 24.1 | 30.6 | 0.00 | 0.00 | 0.00 | 27 | 1006.1 |
| 20260906183007 | 23 | 171 | 17.7 | 22.5 | 0.00 | 0.00 | 0.00 | 30 | 1006.4 |
| 20260906181636 | 23 | 171 | 14.5 | 19.3 | 0.00 | 0.00 | 0.00 | 31 | 1006.8 |
| 20260906180044 | 22 | 171 | 12.9 | 19.3 | 0.00 | 0.00 | 0.00 | 30 | 1007.2 |
| 20260906174547 | 21 | 171 | 6.4 | 14.5 | 0.00 | 0.00 | 0.00 | 31 | 1007.6 |
| 20260906173022 | 21 | 171 | 6.4 | 14.5 | 0.00 | 0.00 | 0.00 | 32 | 1007.9 |
| 20260906171520 | 21 | 171 | 8.0 | 12.9 | 0.00 | 0.00 | 0.00 | 32 | 1008.2 |
| 20260906170003 | 20 | 171 | 4.8 | 9.7 | 0.00 | 0.00 | 0.00 | 32 | 1008.2 |
| 20260906164605 | 20 | 171 | 6.4 | 9.7 | 0.00 | 0.00 | 0.00 | 33 | 1008.4 |
| 20260906163040 | 20 | 171 | 1.6 | 6.4 | 0.00 | 0.00 | 0.00 | 32 | 1008.4 |
| 20260906161537 | 19 | 171 | 0.0 | 8.0 | 0.00 | 0.00 | 0.00 | 35 | 1008.4 |
| 20260906160017 | 18 | 171 | 3.2 | 8.0 | 0.00 | 0.00 | 0.00 | 36 | 1008.4 |
| 20260906154530 | 17 | 171 | 6.4 | 9.7 | 0.00 | 0.00 | 0.00 | 36 | 1008.5 |
| 20260906153055 | 17 | 171 | 8.0 | 12.9 | 0.00 | 0.00 | 0.00 | 41 | 1008.6 |
| 20260906151556 | 16 | 171 | 8.0 | 14.5 | 0.00 | 0.00 | 0.00 | 43 | 1008.7 |
| 20260906150042 | 15 | 171 | 4.8 | 12.9 | 0.00 | 0.00 | 0.00 | 45 | 1008.8 |
| 20260906144552 | 13 | 171 | 6.4 | 11.3 | 0.00 | 0.00 | 0.00 | 47 | 1008.8 |
| 20260906143022 | 13 | 171 | 9.7 | 11.3 | 0.00 | 0.00 | 0.00 | 48 | 1009.0 |
| 20260906141524 | 12 | 171 | 4.8 | 9.7 | 0.00 | 0.00 | 0.00 | 57 | 1009.1 |
| 20260906140056 | 11 | 171 | 4.8 | 12.9 | 0.00 | 0.00 | 0.00 | 58 | 1009.1 |
| 20260906134552 | 10 | 171 | 9.7 | 14.5 | 0.00 | 0.00 | 0.00 | 57 | 1009.1 |
| 20260906133029 | 10 | 171 | 8.0 | 14.5 | 0.00 | 0.00 | 0.00 | 52 | 1009.2 |
| 20260906131525 | 9 | 171 | 17.7 | 24.1 | 0.00 | 0.00 | 0.00 | 58 | 1009.4 |
| 20260906130006 | 7 | 171 | 6.4 | 12.9 | 0.00 | 0.00 | 0.00 | 68 | 1009.2 |
| 20260906124506 | 8 | 171 | 8.0 | 11.3 | 0.00 | 0.00 | 0.00 | 65 | 1009.3 |
| 20260906123048 | 7 | 171 | 6.4 | 11.3 | 0.00 | 0.00 | 0.00 | 69 | 1009.4 |
| 20260906121547 | 7 | 171 | 3.2 | 12.9 | 0.00 | 0.00 | 0.00 | 65 | 1009.2 |
| 20260906120029 | 7 | 171 | 11.3 | 14.5 | 0.00 | 0.00 | 0.00 | 62 | 1009.3 |
| 20260906114543 | 7 | 171 | 9.7 | 12.9 | 0.00 | 0.00 | 0.00 | 62 | 1009.4 |
| 20260906113009 | 7 | 171 | 8.0 | 11.3 | 0.00 | 0.00 | 0.00 | 63 | 1009.3 |
| 20260906111509 | 8 | 171 | 8.0 | 11.3 | 0.00 | 0.00 | 0.00 | 62 | 1009.2 |
| 20260906110050 | 8 | 171 | 6.4 | 8.0 | 0.00 | 0.00 | 0.00 | 63 | 1009.0 |
| 20260906104556 | 8 | 171 | 3.2 | 6.4 | 0.00 | 0.00 | 0.00 | 66 | 1008.8 |
| 20260906103037 | 7 | 170 | 4.8 | 8.0 | 0.00 | 0.00 | 0.00 | 69 | 1008.6 |
| 20260906101530 | 8 | 170 | 6.4 | 9.7 | 0.00 | 0.00 | 0.00 | 62 | 1008.5 |
| 20260906100033 | 8 | 171 | 9.7 | 14.5 | 0.00 | 0.00 | 0.00 | 59 | 1008.3 |
| 20260906094551 | 9 | 171 | 9.7 | 12.9 | 0.00 | 0.00 | 0.00 | 56 | 1008.3 |
| 20260906093039 | 10 | 171 | 12.9 | 14.5 | 0.00 | 0.00 | 0.00 | 54 | 1008.1 |
| 20260906091523 | 11 | 171 | 6.4 | 14.5 | 0.00 | 0.00 | 0.00 | 47 | 1008.2 |
| 20260906090025 | 12 | 171 | 8.0 | 12.9 | 0.00 | 0.00 | 0.00 | 41 | 1007.9 |
| 20260906084521 | 12 | 171 | 8.0 | 11.3 | 0.00 | 0.00 | 0.00 | 43 | 1007.9 |
| 20260906083001 | 10 | 170 | 3.2 | 8.0 | 0.00 | 0.00 | 0.00 | 57 | 1007.7 |
| 20260906081602 | 10 | 171 | 6.4 | 12.9 | 0.00 | 0.00 | 0.00 | 54 | 1007.4 |
| 20260906080044 | 11 | 171 | 9.7 | 17.7 | 0.00 | 0.00 | 0.00 | 52 | 1007.5 |
| 20260906074541 | 10 | 170 | 12.9 | 16.1 | 0.00 | 0.00 | 0.00 | 53 | 1007.5 |
| 20260906073025 | 9 | 167 | 8.0 | 14.5 | 0.00 | 0.00 | 0.00 | 58 | 1007.6 |
| 20260906071517 | 10 | 170 | 8.0 | 14.5 | 0.00 | 0.00 | 0.00 | 57 | 1007.6 |
| 20260906070057 | 12 | 171 | 4.8 | 11.3 | 0.00 | 0.00 | 0.00 | 46 | 1007.4 |
| 20260906064556 | 13 | 168 | 3.2 | 9.7 | 0.00 | 0.00 | 0.00 | 41 | 1007.6 |
| 20260906063039 | 13 | 169 | 4.8 | 8.0 | 0.00 | 0.00 | 0.00 | 44 | 1007.3 |
| 20260906061536 | 12 | 169 | 4.8 | 6.4 | 0.00 | 0.00 | 0.00 | 61 | 1007.1 |
| 20260906060015 | 12 | 169 | 3.2 | 6.4 | 0.00 | 0.00 | 0.00 | 58 | 1007.2 |
| 20260906054514 | 12 | 169 | 3.2 | 11.3 | 0.00 | 0.00 | 0.00 | 50 | 1007.0 |
| 20260906053052 | 14 | 169 | 9.7 | 12.9 | 0.00 | 0.00 | 0.00 | 48 | 1006.8 |
| 20260906051601 | 15 | 169 | 6.4 | 11.3 | 0.00 | 0.00 | 0.00 | 41 | 1006.8 |
| 20260906050032 | 16 | 169 | 4.8 | 8.0 | 0.00 | 0.00 | 0.00 | 36 | 1006.9 |
| 20260906044532 | 17 | 169 | 4.8 | 8.0 | 0.00 | 0.00 | 0.00 | 32 | 1006.9 |
| 20260906043011 | 17 | 169 | 6.4 | 12.9 | 0.00 | 0.00 | 0.00 | 33 | 1007.0 |
| 20260906041508 | 16 | 169 | 3.2 | 16.1 | 0.00 | 0.00 | 0.00 | 39 | 1006.7 |
| 20260906040100 | 16 | 169 | 16.1 | 19.3 | 0.00 | 0.00 | 0.00 | 38 | 1006.5 |
| 20260906034545 | 15 | 169 | 11.3 | 16.1 | 0.00 | 0.00 | 0.00 | 41 | 1006.7 |
| 20260906033037 | 15 | 169 | 12.9 | 14.5 | 0.00 | 0.00 | 0.00 | 43 | 1006.7 |
| 20260906031534 | 15 | 169 | 11.3 | 14.5 | 0.00 | 0.00 | 0.00 | 43 | 1006.6 |
| 20260906030009 | 15 | 155 | 11.3 | 16.1 | 0.00 | 0.00 | 0.00 | 38 | 1006.5 |
| 20260906024517 | 15 | 157 | 11.3 | 16.1 | 0.00 | 0.00 | 0.00 | 39 | 1006.4 |
| 20260906023047 | 15 | 158 | 11.3 | 12.9 | 0.00 | 0.00 | 0.00 | 41 | 1006.3 |
| 20260906021547 | 16 | 158 | 8.0 | 14.5 | 0.00 | 0.00 | 0.00 | 37 | 1006.1 |
| 20260906020029 | 16 | 167 | 9.7 | 12.9 | 0.00 | 0.00 | 0.00 | 43 | 1005.9 |
| 20260906014540 | 18 | 171 | 11.3 | 16.1 | 0.00 | 0.00 | 0.00 | 35 | 1005.8 |
| 20260906013032 | 21 | 171 | 12.9 | 16.1 | 0.00 | 0.00 | 0.00 | 28 | 1005.9 |
| 20260906011510 | 22 | 171 | 11.3 | 16.1 | 0.00 | 0.00 | 0.00 | 31 | 1005.9 |
| 20260906010054 | 23 | 171 | 8.0 | 17.7 | 0.00 | 0.00 | 0.00 | 28 | 1005.9 |
| 20260906004603 | 24 | 171 | 9.7 | 16.1 | 0.00 | 0.00 | 0.00 | 25 | 1005.8 |
| 20260906003034 | 25 | 171 | 9.7 | 19.3 | 0.00 | 0.00 | 0.00 | 21 | 1005.7 |
| 20260906001534 | 25 | 171 | 16.1 | 20.9 | 0.00 | 0.00 | 0.00 | 22 | 1005.6 |
| 20260906000016 | 26 | 171 | 12.9 | 20.9 | 0.00 | 0.00 | 0.00 | 21 | 1005.6 |
| 20260905234515 | 26 | 171 | 3.2 | 17.7 | 0.00 | 0.00 | 0.00 | 23 | 1005.7 |
| 20260905233057 | 26 | 171 | 16.1 | 24.1 | 0.00 | 0.00 | 0.00 | 18 | 1005.4 |
| 20260905231556 | 26 | 171 | 14.5 | 22.5 | 0.00 | 0.00 | 0.00 | 22 | 1005.5 |